BAW617 LIRP-EGLL
Flight info
| Callsign | BAW617 |
|---|---|
| Flight time | 1h 42m |
| Altitude | 38000 |
| Route | SPEZI DCT TESTO DCT ASTIG DCT AOSTA DCT ORSUD DCT MOLUS DCT IBODI DCT GOTED DCT TRO DCT CLM DCT KOPOR DCT ABNUR/N0440F360 DCT DIMAL DCT ALESO |
| Aircraft | A320/M-SDE3FGIJ1KRWXY/SB1 |
Departure
| Time | 2026-04-23 19:30 |
|---|---|
| Airport | Pisa International Airport (LIRP) |
Arrival
| Time | 2026-04-23 21:12 |
|---|---|
| Airport | London Heathrow Airport (EGLL) |
| Time | Latitude | Longitude | Altitude | Speed | Heading |
|---|---|---|---|---|---|
| 2026-04-23 18:59 | 43.69766 | 10.39970 | 15 ft | 0 kts | 8° |
| 2026-04-23 19:20 | 43.69751 | 10.39967 | 16 ft | 2 kts | 8° |
| 2026-04-23 19:20 | 43.69734 | 10.39964 | 16 ft | 2 kts | 8° |
| 2026-04-23 19:21 | 43.69717 | 10.39961 | 16 ft | 2 kts | 8° |
| 2026-04-23 19:21 | 43.69686 | 10.39940 | 17 ft | 3 kts | 69° |
| 2026-04-23 19:21 | 43.69683 | 10.39920 | 16 ft | 0 kts | 96° |
| 2026-04-23 19:23 | 43.69676 | 10.39935 | 14 ft | 8 kts | 133° |
| 2026-04-23 19:23 | 43.69611 | 10.39934 | 14 ft | 11 kts | 188° |
| 2026-04-23 19:24 | 43.69484 | 10.39907 | 14 ft | 5 kts | 188° |
| 2026-04-23 19:24 | 43.69483 | 10.39907 | 14 ft | 1 kts | 188° |
| 2026-04-23 19:24 | 43.69307 | 10.39894 | 14 ft | 17 kts | 172° |
| 2026-04-23 19:25 | 43.69064 | 10.39799 | 13 ft | 22 kts | 216° |
| 2026-04-23 19:25 | 43.68785 | 10.39514 | 12 ft | 27 kts | 217° |
| 2026-04-23 19:26 | 43.68457 | 10.39175 | 11 ft | 32 kts | 213° |
| 2026-04-23 19:26 | 43.68279 | 10.38994 | 10 ft | 31 kts | 217° |
| 2026-04-23 19:27 | 43.67920 | 10.38619 | 11 ft | 33 kts | 216° |
| 2026-04-23 19:27 | 43.67434 | 10.38118 | 7 ft | 11 kts | 190° |
| 2026-04-23 19:28 | 43.67316 | 10.38235 | 11 ft | 11 kts | 128° |
| 2026-04-23 19:28 | 43.67297 | 10.38269 | 11 ft | 5 kts | 126° |
| 2026-04-23 19:29 | 43.67334 | 10.38354 | 12 ft | 14 kts | 33° |
| 2026-04-23 19:29 | 43.67592 | 10.38620 | 14 ft | 80 kts | 37° |
| 2026-04-23 19:30 | 43.69090 | 10.40148 | 262 ft | 160 kts | 34° |
| 2026-04-23 19:30 | 43.69975 | 10.41072 | 948 ft | 162 kts | 35° |
| 2026-04-23 19:30 | 43.72029 | 10.43161 | 1649 ft | 207 kts | 28° |
| 2026-04-23 19:31 | 43.73488 | 10.43538 | 2061 ft | 228 kts | 347° |
| 2026-04-23 19:31 | 43.74901 | 10.42389 | 2557 ft | 250 kts | 308° |
| 2026-04-23 19:31 | 43.75557 | 10.40127 | 3349 ft | 262 kts | 277° |
| 2026-04-23 19:31 | 43.75596 | 10.37574 | 4266 ft | 269 kts | 267° |
| 2026-04-23 19:32 | 43.75457 | 10.34957 | 5181 ft | 277 kts | 266° |
| 2026-04-23 19:32 | 43.75321 | 10.32287 | 6028 ft | 286 kts | 268° |
| 2026-04-23 19:32 | 43.75246 | 10.29498 | 6862 ft | 294 kts | 270° |
| 2026-04-23 19:32 | 43.75250 | 10.26641 | 7751 ft | 298 kts | 273° |
| 2026-04-23 19:33 | 43.75329 | 10.23763 | 8698 ft | 300 kts | 275° |
| 2026-04-23 19:33 | 43.75446 | 10.20869 | 9651 ft | 302 kts | 276° |
| 2026-04-23 19:33 | 43.75713 | 10.14831 | 10721 ft | 335 kts | 276° |
| 2026-04-23 19:34 | 43.75851 | 10.11525 | 11172 ft | 350 kts | 276° |
| 2026-04-23 19:34 | 43.75980 | 10.08138 | 11895 ft | 355 kts | 275° |
| 2026-04-23 19:34 | 43.76222 | 10.01262 | 13434 ft | 362 kts | 275° |
| 2026-04-23 19:35 | 43.76342 | 9.97765 | 14160 ft | 366 kts | 275° |
| 2026-04-23 19:35 | 43.76462 | 9.94238 | 14818 ft | 369 kts | 275° |
| 2026-04-23 19:35 | 43.76585 | 9.90663 | 15479 ft | 372 kts | 275° |
| 2026-04-23 19:35 | 43.76708 | 9.87073 | 16124 ft | 375 kts | 275° |
| 2026-04-23 19:36 | 43.76830 | 9.83497 | 16756 ft | 378 kts | 275° |
| 2026-04-23 19:36 | 43.76954 | 9.79832 | 17405 ft | 382 kts | 275° |
| 2026-04-23 19:36 | 43.77076 | 9.76135 | 18046 ft | 385 kts | 275° |
| 2026-04-23 19:36 | 43.77198 | 9.72448 | 18664 ft | 388 kts | 275° |
| 2026-04-23 19:37 | 43.77322 | 9.68656 | 19242 ft | 391 kts | 275° |
| 2026-04-23 19:37 | 43.77658 | 9.64939 | 19810 ft | 392 kts | 285° |
| 2026-04-23 19:37 | 43.78490 | 9.61390 | 20384 ft | 391 kts | 296° |
| 2026-04-23 19:37 | 43.79812 | 9.58085 | 20946 ft | 390 kts | 307° |
| 2026-04-23 19:38 | 43.81530 | 9.55235 | 21478 ft | 390 kts | 318° |
| 2026-04-23 19:38 | 43.83605 | 9.52792 | 22011 ft | 391 kts | 324° |
| 2026-04-23 19:38 | 43.85744 | 9.50426 | 22538 ft | 394 kts | 323° |
| 2026-04-23 19:38 | 43.87871 | 9.48063 | 23059 ft | 397 kts | 323° |
| 2026-04-23 19:39 | 43.90041 | 9.45642 | 23583 ft | 400 kts | 323° |
| 2026-04-23 19:39 | 43.92220 | 9.43207 | 24040 ft | 403 kts | 323° |
| 2026-04-23 19:39 | 43.94413 | 9.40756 | 24460 ft | 406 kts | 323° |
| 2026-04-23 19:39 | 43.96580 | 9.38331 | 24885 ft | 408 kts | 323° |
| 2026-04-23 19:40 | 43.98821 | 9.35820 | 25303 ft | 411 kts | 323° |
| 2026-04-23 19:40 | 44.01066 | 9.33302 | 25717 ft | 414 kts | 323° |
| 2026-04-23 19:40 | 44.03284 | 9.30807 | 26115 ft | 417 kts | 323° |
| 2026-04-23 19:40 | 44.05562 | 9.28244 | 26512 ft | 420 kts | 323° |
| 2026-04-23 19:41 | 44.07834 | 9.25689 | 26908 ft | 423 kts | 323° |
| 2026-04-23 19:41 | 44.10140 | 9.23090 | 27304 ft | 426 kts | 323° |
| 2026-04-23 19:41 | 44.12451 | 9.20484 | 27693 ft | 429 kts | 323° |
| 2026-04-23 19:41 | 44.14752 | 9.17886 | 28086 ft | 432 kts | 323° |
| 2026-04-23 19:42 | 44.17098 | 9.15233 | 28479 ft | 435 kts | 323° |
| 2026-04-23 19:42 | 44.19468 | 9.12549 | 28871 ft | 437 kts | 323° |
| 2026-04-23 19:42 | 44.21841 | 9.09863 | 29259 ft | 440 kts | 323° |
| 2026-04-23 19:42 | 44.24213 | 9.07177 | 29628 ft | 443 kts | 323° |
| 2026-04-23 19:43 | 44.26602 | 9.04466 | 29993 ft | 446 kts | 323° |
| 2026-04-23 19:43 | 44.29022 | 9.01713 | 30342 ft | 449 kts | 323° |
| 2026-04-23 19:43 | 44.31436 | 8.98961 | 30657 ft | 452 kts | 323° |
| 2026-04-23 19:43 | 44.33879 | 8.96177 | 31000 ft | 454 kts | 323° |
| 2026-04-23 19:44 | 44.36341 | 8.93372 | 31488 ft | 452 kts | 323° |
| 2026-04-23 19:44 | 44.38756 | 8.90616 | 31986 ft | 451 kts | 323° |
| 2026-04-23 19:44 | 44.41194 | 8.87831 | 32480 ft | 449 kts | 323° |
| 2026-04-23 19:44 | 44.43617 | 8.85060 | 32968 ft | 448 kts | 323° |
| 2026-04-23 19:45 | 44.46007 | 8.82324 | 33436 ft | 447 kts | 323° |
| 2026-04-23 19:45 | 44.48421 | 8.79555 | 33931 ft | 446 kts | 323° |
| 2026-04-23 19:45 | 44.50824 | 8.76796 | 34394 ft | 445 kts | 323° |
| 2026-04-23 19:45 | 44.53201 | 8.74068 | 34802 ft | 445 kts | 323° |
| 2026-04-23 19:46 | 44.55594 | 8.71317 | 35174 ft | 445 kts | 323° |
| 2026-04-23 19:46 | 44.57986 | 8.68569 | 35556 ft | 444 kts | 323° |
| 2026-04-23 19:46 | 44.60364 | 8.65836 | 35923 ft | 444 kts | 323° |
| 2026-04-23 19:46 | 44.62782 | 8.63125 | 36289 ft | 444 kts | 324° |
| 2026-04-23 19:47 | 44.65231 | 8.60462 | 36644 ft | 443 kts | 324° |
| 2026-04-23 19:47 | 44.67655 | 8.57875 | 36985 ft | 443 kts | 325° |
| 2026-04-23 19:47 | 44.70125 | 8.55250 | 37317 ft | 443 kts | 325° |
| 2026-04-23 19:47 | 44.72589 | 8.52620 | 37652 ft | 442 kts | 324° |
| 2026-04-23 19:48 | 44.75035 | 8.49988 | 37989 ft | 442 kts | 324° |
| 2026-04-23 19:48 | 44.77452 | 8.47367 | 38153 ft | 444 kts | 324° |
| 2026-04-23 19:48 | 44.79911 | 8.44684 | 38174 ft | 445 kts | 324° |
| 2026-04-23 19:49 | 44.84811 | 8.39317 | 38170 ft | 445 kts | 324° |
| 2026-04-23 19:49 | 44.89685 | 8.33977 | 38169 ft | 446 kts | 324° |
| 2026-04-23 19:50 | 44.94570 | 8.28624 | 38162 ft | 446 kts | 324° |
| 2026-04-23 19:50 | 44.99510 | 8.23241 | 38167 ft | 446 kts | 324° |
| 2026-04-23 19:51 | 45.04426 | 8.17901 | 38165 ft | 447 kts | 324° |
| 2026-04-23 19:51 | 45.09344 | 8.12546 | 38173 ft | 448 kts | 324° |
| 2026-04-23 19:52 | 45.14293 | 8.07143 | 38162 ft | 448 kts | 324° |
| 2026-04-23 19:52 | 45.19208 | 8.01767 | 38160 ft | 448 kts | 324° |
| 2026-04-23 19:53 | 45.24165 | 7.96322 | 38164 ft | 449 kts | 324° |
| 2026-04-23 19:53 | 45.29095 | 7.90892 | 38167 ft | 449 kts | 324° |
| 2026-04-23 19:54 | 45.34001 | 7.85484 | 38163 ft | 449 kts | 324° |
| 2026-04-23 19:54 | 45.38961 | 7.80013 | 38168 ft | 450 kts | 324° |
| 2026-04-23 19:55 | 45.43875 | 7.74570 | 38173 ft | 450 kts | 324° |
| 2026-04-23 19:55 | 45.48812 | 7.69087 | 38181 ft | 450 kts | 324° |
| 2026-04-23 19:56 | 45.53760 | 7.63591 | 38194 ft | 451 kts | 324° |
| 2026-04-23 19:56 | 45.58696 | 7.58080 | 38194 ft | 450 kts | 324° |
| 2026-04-23 19:57 | 45.63641 | 7.52547 | 38180 ft | 451 kts | 324° |
| 2026-04-23 19:57 | 45.68549 | 7.47048 | 38176 ft | 451 kts | 324° |
| 2026-04-23 19:58 | 45.73518 | 7.41478 | 38171 ft | 452 kts | 324° |
| 2026-04-23 19:58 | 45.78459 | 7.35927 | 38172 ft | 452 kts | 323° |
| 2026-04-23 19:59 | 45.83496 | 7.30479 | 38172 ft | 452 kts | 326° |
| 2026-04-23 19:59 | 45.88621 | 7.25350 | 38199 ft | 452 kts | 327° |
| 2026-04-23 20:00 | 45.93787 | 7.20214 | 38206 ft | 452 kts | 327° |
| 2026-04-23 20:00 | 45.98919 | 7.14994 | 38237 ft | 453 kts | 326° |
| 2026-04-23 20:01 | 46.04070 | 7.09695 | 38233 ft | 453 kts | 326° |
| 2026-04-23 20:01 | 46.09177 | 7.04434 | 38234 ft | 454 kts | 326° |
| 2026-04-23 20:02 | 46.14320 | 6.99143 | 38246 ft | 454 kts | 326° |
| 2026-04-23 20:02 | 46.19446 | 6.93866 | 38244 ft | 455 kts | 326° |
| 2026-04-23 20:03 | 46.24595 | 6.88541 | 38247 ft | 455 kts | 326° |
| 2026-04-23 20:03 | 46.29737 | 6.83200 | 38245 ft | 455 kts | 326° |
| 2026-04-23 20:04 | 46.34884 | 6.77850 | 38250 ft | 456 kts | 326° |
| 2026-04-23 20:04 | 46.39044 | 6.73520 | 38251 ft | 456 kts | 326° |
| 2026-04-23 20:05 | 46.43308 | 6.69060 | 38245 ft | 456 kts | 324° |
| 2026-04-23 20:05 | 46.48641 | 6.61547 | 38250 ft | 459 kts | 315° |
| 2026-04-23 20:06 | 46.53039 | 6.54900 | 38252 ft | 459 kts | 315° |
| 2026-04-23 20:06 | 46.57467 | 6.48198 | 38258 ft | 459 kts | 315° |
| 2026-04-23 20:07 | 46.61353 | 6.42298 | 38259 ft | 459 kts | 315° |
| 2026-04-23 20:07 | 46.65165 | 6.36476 | 38263 ft | 460 kts | 314° |
| 2026-04-23 20:08 | 46.69578 | 6.29711 | 38265 ft | 460 kts | 315° |
| 2026-04-23 20:08 | 46.73991 | 6.22966 | 38271 ft | 460 kts | 314° |
| 2026-04-23 20:09 | 46.78394 | 6.16216 | 38272 ft | 460 kts | 314° |
| 2026-04-23 20:09 | 46.82794 | 6.09439 | 38268 ft | 460 kts | 314° |
| 2026-04-23 20:10 | 46.86475 | 6.03757 | 38269 ft | 461 kts | 314° |
| 2026-04-23 20:10 | 46.91587 | 5.95861 | 38267 ft | 461 kts | 314° |
| 2026-04-23 20:11 | 46.96313 | 5.89521 | 38259 ft | 459 kts | 327° |
| 2026-04-23 20:11 | 47.01878 | 5.85004 | 38253 ft | 458 kts | 334° |
| 2026-04-23 20:12 | 47.07507 | 5.80686 | 38247 ft | 459 kts | 333° |
| 2026-04-23 20:12 | 47.13188 | 5.76305 | 38243 ft | 459 kts | 333° |
| 2026-04-23 20:13 | 47.18817 | 5.71947 | 38245 ft | 460 kts | 333° |
| 2026-04-23 20:13 | 47.24515 | 5.67539 | 38246 ft | 460 kts | 333° |
| 2026-04-23 20:14 | 47.30149 | 5.63168 | 38251 ft | 461 kts | 333° |
| 2026-04-23 20:14 | 47.35848 | 5.58734 | 38256 ft | 461 kts | 333° |
| 2026-04-23 20:15 | 47.40560 | 5.55053 | 38261 ft | 462 kts | 333° |
| 2026-04-23 20:15 | 47.46223 | 5.50625 | 38263 ft | 462 kts | 333° |
| 2026-04-23 20:16 | 47.52547 | 5.44719 | 38268 ft | 463 kts | 322° |
| 2026-04-23 20:16 | 47.57483 | 5.38606 | 38268 ft | 464 kts | 319° |
| 2026-04-23 20:17 | 47.61523 | 5.33336 | 38274 ft | 464 kts | 319° |
| 2026-04-23 20:17 | 47.66382 | 5.27029 | 38273 ft | 465 kts | 320° |
| 2026-04-23 20:18 | 47.71283 | 5.20794 | 38275 ft | 465 kts | 320° |
| 2026-04-23 20:18 | 47.76231 | 5.14541 | 38280 ft | 465 kts | 320° |
| 2026-04-23 20:19 | 47.81138 | 5.08289 | 38280 ft | 465 kts | 320° |
| 2026-04-23 20:19 | 47.86037 | 5.01995 | 38284 ft | 465 kts | 320° |
| 2026-04-23 20:20 | 47.90923 | 4.95712 | 38289 ft | 465 kts | 320° |
| 2026-04-23 20:20 | 47.95853 | 4.89375 | 38286 ft | 465 kts | 320° |
| 2026-04-23 20:21 | 48.00744 | 4.83067 | 38284 ft | 466 kts | 319° |
| 2026-04-23 20:21 | 48.05629 | 4.76736 | 38289 ft | 466 kts | 319° |
| 2026-04-23 20:22 | 48.10515 | 4.70382 | 38288 ft | 466 kts | 319° |
| 2026-04-23 20:22 | 48.15429 | 4.63998 | 38289 ft | 466 kts | 319° |
| 2026-04-23 20:23 | 48.20310 | 4.57641 | 38289 ft | 466 kts | 319° |
| 2026-04-23 20:23 | 48.25162 | 4.51298 | 38286 ft | 466 kts | 319° |
| 2026-04-23 20:24 | 48.30078 | 4.44859 | 38283 ft | 466 kts | 319° |
| 2026-04-23 20:24 | 48.34931 | 4.38473 | 38285 ft | 466 kts | 319° |
| 2026-04-23 20:25 | 48.39803 | 4.32041 | 38290 ft | 466 kts | 319° |
| 2026-04-23 20:25 | 48.44704 | 4.25559 | 38290 ft | 467 kts | 319° |
| 2026-04-23 20:26 | 48.49570 | 4.19115 | 38289 ft | 467 kts | 319° |
| 2026-04-23 20:26 | 48.54413 | 4.12680 | 38291 ft | 467 kts | 319° |
| 2026-04-23 20:27 | 48.59302 | 4.06170 | 38291 ft | 467 kts | 319° |
| 2026-04-23 20:27 | 48.64163 | 3.99682 | 38291 ft | 467 kts | 318° |
| 2026-04-23 20:28 | 48.69036 | 3.93151 | 38294 ft | 467 kts | 318° |
| 2026-04-23 20:28 | 48.73895 | 3.86619 | 38293 ft | 467 kts | 318° |
| 2026-04-23 20:29 | 48.78746 | 3.80084 | 38296 ft | 467 kts | 318° |
| 2026-04-23 20:29 | 48.83608 | 3.73522 | 38300 ft | 468 kts | 318° |
| 2026-04-23 20:30 | 48.88434 | 3.66989 | 38302 ft | 468 kts | 318° |
| 2026-04-23 20:30 | 48.95713 | 3.57080 | 38308 ft | 468 kts | 317° |
| 2026-04-23 20:31 | 49.00562 | 3.50462 | 38309 ft | 468 kts | 317° |
| 2026-04-23 20:31 | 49.05400 | 3.43855 | 38307 ft | 468 kts | 317° |
| 2026-04-23 20:32 | 49.10259 | 3.37196 | 38309 ft | 468 kts | 317° |
| 2026-04-23 20:32 | 49.15086 | 3.30561 | 38316 ft | 468 kts | 317° |
| 2026-04-23 20:33 | 49.19923 | 3.23887 | 38313 ft | 469 kts | 317° |
| 2026-04-23 20:33 | 49.23307 | 3.19235 | 38313 ft | 469 kts | 317° |
| 2026-04-23 20:34 | 49.28128 | 3.12577 | 38314 ft | 469 kts | 317° |
| 2026-04-23 20:34 | 49.32960 | 3.05847 | 38321 ft | 469 kts | 317° |
| 2026-04-23 20:35 | 49.37801 | 2.99096 | 38322 ft | 469 kts | 317° |
| 2026-04-23 20:35 | 49.42602 | 2.92392 | 38324 ft | 469 kts | 317° |
| 2026-04-23 20:36 | 49.47458 | 2.85601 | 38329 ft | 469 kts | 317° |
| 2026-04-23 20:36 | 49.52259 | 2.78863 | 38333 ft | 469 kts | 317° |
| 2026-04-23 20:37 | 49.57049 | 2.72124 | 38332 ft | 469 kts | 317° |
| 2026-04-23 20:37 | 49.60756 | 2.66893 | 38332 ft | 469 kts | 316° |
| 2026-04-23 20:38 | 49.65577 | 2.60065 | 38337 ft | 469 kts | 316° |
| 2026-04-23 20:38 | 49.70358 | 2.53289 | 38337 ft | 469 kts | 316° |
| 2026-04-23 20:39 | 49.75158 | 2.46457 | 38339 ft | 469 kts | 316° |
| 2026-04-23 20:39 | 49.79958 | 2.39613 | 38341 ft | 469 kts | 316° |
| 2026-04-23 20:40 | 49.84745 | 2.32761 | 38343 ft | 469 kts | 316° |
| 2026-04-23 20:40 | 49.89533 | 2.25881 | 38347 ft | 468 kts | 316° |
| 2026-04-23 20:41 | 49.94301 | 2.19010 | 38350 ft | 468 kts | 316° |
| 2026-04-23 20:41 | 49.99056 | 2.12143 | 38352 ft | 468 kts | 316° |
| 2026-04-23 20:42 | 50.03844 | 2.05223 | 38353 ft | 468 kts | 316° |
| 2026-04-23 20:42 | 50.08596 | 1.98321 | 38359 ft | 468 kts | 316° |
| 2026-04-23 20:43 | 50.13324 | 1.91434 | 38361 ft | 468 kts | 316° |
| 2026-04-23 20:43 | 50.18074 | 1.84493 | 38365 ft | 467 kts | 315° |
| 2026-04-23 20:44 | 50.22746 | 1.77447 | 38365 ft | 467 kts | 314° |
| 2026-04-23 20:44 | 50.27361 | 1.70346 | 38375 ft | 466 kts | 314° |
| 2026-04-23 20:45 | 50.31963 | 1.63258 | 38375 ft | 466 kts | 314° |
| 2026-04-23 20:45 | 50.34293 | 1.59690 | 38021 ft | 467 kts | 314° |
| 2026-04-23 20:45 | 50.36627 | 1.56116 | 36596 ft | 474 kts | 314° |
| 2026-04-23 20:46 | 50.39016 | 1.52454 | 35042 ft | 485 kts | 314° |
| 2026-04-23 20:46 | 50.41424 | 1.48751 | 33383 ft | 495 kts | 313° |
| 2026-04-23 20:46 | 50.43906 | 1.44925 | 31933 ft | 497 kts | 313° |
| 2026-04-23 20:46 | 50.46329 | 1.41186 | 31215 ft | 484 kts | 313° |
| 2026-04-23 20:47 | 50.48697 | 1.37535 | 30661 ft | 467 kts | 313° |
| 2026-04-23 20:47 | 50.50959 | 1.33972 | 30026 ft | 452 kts | 311° |
| 2026-04-23 20:47 | 50.53093 | 1.30433 | 29469 ft | 443 kts | 310° |
| 2026-04-23 20:47 | 50.55177 | 1.26850 | 28902 ft | 441 kts | 309° |
| 2026-04-23 20:48 | 50.57204 | 1.23304 | 28349 ft | 438 kts | 309° |
| 2026-04-23 20:48 | 50.59265 | 1.19764 | 27797 ft | 436 kts | 311° |
| 2026-04-23 20:48 | 50.61366 | 1.16330 | 27249 ft | 435 kts | 313° |
| 2026-04-23 20:48 | 50.63498 | 1.12973 | 26717 ft | 433 kts | 314° |
| 2026-04-23 20:49 | 50.65642 | 1.09657 | 26186 ft | 431 kts | 314° |
| 2026-04-23 20:49 | 50.67751 | 1.06408 | 25680 ft | 428 kts | 314° |
| 2026-04-23 20:49 | 50.69867 | 1.03117 | 25173 ft | 426 kts | 314° |
| 2026-04-23 20:49 | 50.71956 | 0.99832 | 24682 ft | 424 kts | 314° |
| 2026-04-23 20:50 | 50.74043 | 0.96516 | 24189 ft | 421 kts | 314° |
| 2026-04-23 20:50 | 50.76092 | 0.93239 | 23682 ft | 419 kts | 314° |
| 2026-04-23 20:50 | 50.78130 | 0.89974 | 23213 ft | 415 kts | 314° |
| 2026-04-23 20:50 | 50.80145 | 0.86746 | 22735 ft | 410 kts | 314° |
| 2026-04-23 20:51 | 50.82154 | 0.83535 | 22261 ft | 406 kts | 314° |
| 2026-04-23 20:51 | 50.84136 | 0.80368 | 21769 ft | 403 kts | 314° |
| 2026-04-23 20:51 | 50.86071 | 0.77270 | 21285 ft | 399 kts | 314° |
| 2026-04-23 20:51 | 50.88031 | 0.74122 | 20785 ft | 396 kts | 314° |
| 2026-04-23 20:52 | 50.89961 | 0.71022 | 20282 ft | 393 kts | 314° |
| 2026-04-23 20:52 | 50.91879 | 0.67943 | 19763 ft | 391 kts | 314° |
| 2026-04-23 20:52 | 50.93780 | 0.64885 | 19251 ft | 389 kts | 314° |
| 2026-04-23 20:52 | 50.95671 | 0.61835 | 18728 ft | 387 kts | 314° |
| 2026-04-23 20:53 | 50.97552 | 0.58798 | 18128 ft | 385 kts | 314° |
| 2026-04-23 20:53 | 50.99399 | 0.55813 | 17427 ft | 387 kts | 314° |
| 2026-04-23 20:53 | 51.01302 | 0.52732 | 16717 ft | 388 kts | 315° |
| 2026-04-23 20:53 | 51.03214 | 0.49629 | 16009 ft | 389 kts | 315° |
| 2026-04-23 20:54 | 51.05066 | 0.46618 | 15532 ft | 383 kts | 315° |
| 2026-04-23 20:54 | 51.06943 | 0.43569 | 14954 ft | 380 kts | 315° |
| 2026-04-23 20:54 | 51.08812 | 0.40621 | 14375 ft | 375 kts | 317° |
| 2026-04-23 20:54 | 51.10653 | 0.37809 | 13332 ft | 369 kts | 318° |
| 2026-04-23 20:55 | 51.12507 | 0.35019 | 12493 ft | 359 kts | 318° |
| 2026-04-23 20:55 | 51.14293 | 0.32333 | 12013 ft | 341 kts | 318° |
| 2026-04-23 20:55 | 51.15941 | 0.29836 | 11797 ft | 320 kts | 318° |
| 2026-04-23 20:55 | 51.17517 | 0.27438 | 11505 ft | 308 kts | 319° |
| 2026-04-23 20:56 | 51.19071 | 0.25070 | 11256 ft | 307 kts | 319° |
| 2026-04-23 20:56 | 51.20595 | 0.22736 | 10989 ft | 306 kts | 318° |
| 2026-04-23 20:56 | 51.21976 | 0.20615 | 10501 ft | 304 kts | 319° |
| 2026-04-23 20:56 | 51.23496 | 0.18278 | 9836 ft | 300 kts | 318° |
| 2026-04-23 20:57 | 51.24993 | 0.15974 | 9245 ft | 296 kts | 318° |
| 2026-04-23 20:57 | 51.26452 | 0.13727 | 8681 ft | 293 kts | 318° |
| 2026-04-23 20:57 | 51.27923 | 0.11459 | 8107 ft | 290 kts | 318° |
| 2026-04-23 20:57 | 51.29368 | 0.09229 | 7567 ft | 287 kts | 318° |
| 2026-04-23 20:58 | 51.30765 | 0.07069 | 7405 ft | 269 kts | 318° |
| 2026-04-23 20:58 | 51.32037 | 0.04994 | 7405 ft | 258 kts | 310° |
| 2026-04-23 20:58 | 51.32934 | 0.02530 | 7408 ft | 260 kts | 292° |
| 2026-04-23 20:58 | 51.33331 | -0.00298 | 7408 ft | 261 kts | 275° |
| 2026-04-23 20:59 | 51.33498 | -0.03145 | 7409 ft | 261 kts | 276° |
| 2026-04-23 20:59 | 51.33672 | -0.06037 | 7410 ft | 261 kts | 276° |
| 2026-04-23 20:59 | 51.33846 | -0.08919 | 7405 ft | 261 kts | 276° |
| 2026-04-23 20:59 | 51.34019 | -0.11813 | 7408 ft | 261 kts | 276° |
| 2026-04-23 21:00 | 51.34193 | -0.14738 | 7413 ft | 276 kts | 276° |
| 2026-04-23 21:00 | 51.34382 | -0.17916 | 7407 ft | 291 kts | 276° |
| 2026-04-23 21:00 | 51.34572 | -0.21136 | 7402 ft | 294 kts | 276° |
| 2026-04-23 21:00 | 51.34763 | -0.24391 | 7403 ft | 295 kts | 276° |
| 2026-04-23 21:01 | 51.34954 | -0.27651 | 7391 ft | 294 kts | 276° |
| 2026-04-23 21:01 | 51.35140 | -0.30848 | 7334 ft | 277 kts | 276° |
| 2026-04-23 21:01 | 51.35323 | -0.33977 | 7399 ft | 290 kts | 276° |
| 2026-04-23 21:01 | 51.35512 | -0.37226 | 7405 ft | 294 kts | 275° |
| 2026-04-23 21:02 | 51.35639 | -0.39427 | 7410 ft | 295 kts | 275° |
| 2026-04-23 21:02 | 51.35892 | -0.43768 | 7406 ft | 295 kts | 276° |
| 2026-04-23 21:02 | 51.36081 | -0.47037 | 7408 ft | 295 kts | 275° |
| 2026-04-23 21:02 | 51.36269 | -0.50325 | 7407 ft | 295 kts | 275° |
| 2026-04-23 21:03 | 51.36453 | -0.53556 | 7407 ft | 295 kts | 275° |
| 2026-04-23 21:03 | 51.36636 | -0.56847 | 7407 ft | 295 kts | 275° |
| 2026-04-23 21:03 | 51.36813 | -0.60047 | 7400 ft | 278 kts | 275° |
| 2026-04-23 21:03 | 51.36977 | -0.63044 | 7377 ft | 263 kts | 275° |
| 2026-04-23 21:04 | 51.37082 | -0.64967 | 7382 ft | 261 kts | 275° |
| 2026-04-23 21:04 | 51.37166 | -0.67891 | 7116 ft | 267 kts | 270° |
| 2026-04-23 21:04 | 51.37156 | -0.70887 | 6691 ft | 272 kts | 269° |
| 2026-04-23 21:04 | 51.37150 | -0.73975 | 5998 ft | 279 kts | 276° |
| 2026-04-23 21:05 | 51.37830 | -0.76775 | 5498 ft | 265 kts | 312° |
| 2026-04-23 21:05 | 51.39221 | -0.78405 | 5117 ft | 238 kts | 345° |
| 2026-04-23 21:05 | 51.40817 | -0.78779 | 4771 ft | 231 kts | 2° |
| 2026-04-23 21:05 | 51.42443 | -0.78865 | 4402 ft | 229 kts | 2° |
| 2026-04-23 21:06 | 51.43983 | -0.78949 | 4069 ft | 221 kts | 3° |
| 2026-04-23 21:06 | 51.45500 | -0.79026 | 3762 ft | 213 kts | 6° |
| 2026-04-23 21:06 | 51.46845 | -0.78420 | 3463 ft | 192 kts | 44° |
| 2026-04-23 21:06 | 51.47542 | -0.76786 | 3226 ft | 175 kts | 79° |
| 2026-04-23 21:07 | 51.47610 | -0.74882 | 3072 ft | 169 kts | 90° |
| 2026-04-23 21:07 | 51.47621 | -0.73004 | 3027 ft | 168 kts | 90° |
| 2026-04-23 21:07 | 51.47633 | -0.71118 | 2961 ft | 171 kts | 90° |
| 2026-04-23 21:07 | 51.47644 | -0.69232 | 2700 ft | 166 kts | 90° |
| 2026-04-23 21:08 | 51.47655 | -0.67431 | 2494 ft | 156 kts | 90° |
| 2026-04-23 21:08 | 51.47665 | -0.65742 | 2307 ft | 146 kts | 90° |
| 2026-04-23 21:08 | 51.47674 | -0.64131 | 2089 ft | 144 kts | 90° |
| 2026-04-23 21:08 | 51.47682 | -0.62523 | 1879 ft | 143 kts | 89° |
| 2026-04-23 21:09 | 51.47690 | -0.60946 | 1683 ft | 143 kts | 89° |
| 2026-04-23 21:09 | 51.47699 | -0.59342 | 1480 ft | 143 kts | 89° |
| 2026-04-23 21:09 | 51.47703 | -0.58442 | 1369 ft | 135 kts | 89° |
| 2026-04-23 21:09 | 51.47710 | -0.56978 | 1190 ft | 127 kts | 88° |
| 2026-04-23 21:10 | 51.47717 | -0.55574 | 1017 ft | 126 kts | 88° |
| 2026-04-23 21:10 | 51.47721 | -0.54784 | 915 ft | 127 kts | 89° |
| 2026-04-23 21:10 | 51.47727 | -0.53419 | 751 ft | 124 kts | 89° |
| 2026-04-23 21:10 | 51.47731 | -0.52419 | 627 ft | 124 kts | 89° |
| 2026-04-23 21:11 | 51.47735 | -0.51602 | 521 ft | 126 kts | 90° |
| 2026-04-23 21:11 | 51.47741 | -0.50230 | 351 ft | 125 kts | 90° |
| 2026-04-23 21:11 | 51.47747 | -0.48846 | 181 ft | 123 kts | 89° |
| 2026-04-23 21:11 | 51.47752 | -0.47505 | 87 ft | 110 kts | 90° |
| 2026-04-23 21:12 | 51.47756 | -0.46535 | 90 ft | 62 kts | 89° |
| 2026-04-23 21:12 | 51.47715 | -0.46148 | 88 ft | 22 kts | 152° |
| 2026-04-23 21:12 | 51.47654 | -0.46108 | 89 ft | 2 kts | 148° |
| 2026-04-23 21:12 | 51.47613 | -0.46110 | 88 ft | 8 kts | 234° |
| 2026-04-23 21:13 | 51.47595 | -0.46211 | 92 ft | 11 kts | 265° |
| 2026-04-23 21:13 | 51.47592 | -0.46351 | 87 ft | 14 kts | 270° |
| 2026-04-23 21:13 | 51.47592 | -0.46528 | 87 ft | 17 kts | 269° |
| 2026-04-23 21:13 | 51.47591 | -0.46742 | 87 ft | 21 kts | 269° |
| 2026-04-23 21:14 | 51.47583 | -0.46989 | 90 ft | 23 kts | 265° |
| 2026-04-23 21:14 | 51.47581 | -0.47271 | 90 ft | 26 kts | 270° |
| 2026-04-23 21:14 | 51.47581 | -0.47301 | 89 ft | 0 kts | 270° |
| 2026-04-23 21:14 | 51.47581 | -0.47306 | 89 ft | 3 kts | 270° |
| 2026-04-23 21:15 | 51.47581 | -0.47536 | 89 ft | 31 kts | 270° |
| 2026-04-23 21:15 | 51.47579 | -0.47869 | 90 ft | 27 kts | 269° |
| 2026-04-23 21:15 | 51.47578 | -0.48002 | 88 ft | 0 kts | 269° |
| 2026-04-23 21:16 | 51.47578 | -0.48006 | 88 ft | 2 kts | 269° |
| 2026-04-23 21:16 | 51.47577 | -0.48139 | 87 ft | 17 kts | 269° |
| 2026-04-23 21:16 | 51.47577 | -0.48339 | 87 ft | 20 kts | 269° |
| 2026-04-23 21:17 | 51.47542 | -0.48473 | 87 ft | 9 kts | 181° |
| 2026-04-23 21:17 | 51.47480 | -0.48476 | 87 ft | 12 kts | 181° |
| 2026-04-23 21:17 | 51.47410 | -0.48478 | 87 ft | 15 kts | 181° |
| 2026-04-23 21:17 | 51.47291 | -0.48476 | 87 ft | 19 kts | 179° |
| 2026-04-23 21:18 | 51.47168 | -0.48473 | 87 ft | 10 kts | 179° |
| 2026-04-23 21:18 | 51.47130 | -0.48546 | 87 ft | 11 kts | 266° |
| 2026-04-23 21:18 | 51.47126 | -0.48624 | 87 ft | 0 kts | 270° |
| 2026-04-23 21:18 | 51.47126 | -0.48629 | 90 ft | 0 kts | 270° |